createdAt,value
2023-04-30T00:02:09.117Z,11.95
2023-04-30T00:04:35.647Z,15.02
2023-04-30T00:07:02.323Z,14.13
2023-04-30T00:09:28.837Z,13.10
2023-04-30T00:11:55.402Z,14.00
2023-04-30T00:14:21.929Z,13.02
2023-04-30T00:16:48.402Z,13.15
2023-04-30T00:19:14.830Z,13.23
2023-04-30T00:21:42.161Z,14.07
2023-04-30T00:24:08.630Z,14.38
2023-04-30T00:26:35.207Z,12.93
2023-04-30T00:29:01.709Z,12.27
2023-04-30T00:31:28.276Z,13.65
2023-04-30T00:33:54.690Z,13.20
2023-04-30T00:36:21.375Z,11.60
2023-04-30T00:38:47.848Z,12.85
2023-04-30T00:41:14.861Z,12.57
2023-04-30T00:43:41.270Z,12.13
2023-04-30T00:46:07.884Z,16.80
2023-04-30T00:48:34.399Z,14.45
2023-04-30T00:51:03.877Z,14.07
2023-04-30T00:53:31.484Z,12.80
2023-04-30T00:55:57.939Z,16.55
2023-04-30T00:58:25.905Z,13.32
2023-04-30T01:00:53.009Z,15.13
2023-04-30T01:03:20.221Z,13.10
2023-04-30T01:05:46.749Z,15.75
2023-04-30T01:08:13.480Z,12.82
2023-04-30T01:10:52.335Z,12.75
2023-04-30T01:13:53.415Z,14.13
2023-04-30T01:16:25.267Z,14.77
2023-04-30T01:19:05.077Z,15.52
2023-04-30T01:21:33.448Z,13.07
2023-04-30T01:24:36.432Z,13.45
2023-04-30T01:27:24.397Z,13.65
2023-04-30T01:29:53.570Z,13.75
2023-04-30T01:32:20.220Z,14.02
2023-04-30T01:34:46.601Z,14.13
2023-04-30T01:37:18.954Z,15.20
2023-04-30T01:39:48.354Z,15.35
2023-04-30T01:42:25.514Z,14.27
2023-04-30T01:44:51.884Z,13.45
2023-04-30T01:47:39.104Z,15.98
2023-04-30T01:50:41.083Z,14.75
2023-04-30T01:53:12.188Z,14.98
2023-04-30T01:55:43.374Z,17.10
2023-04-30T01:58:12.314Z,13.98
2023-04-30T02:00:38.707Z,15.88
2023-04-30T02:03:05.469Z,14.15
2023-04-30T02:05:32.124Z,14.95
2023-04-30T02:07:59.707Z,13.73
2023-04-30T02:10:29.376Z,14.60
2023-04-30T02:12:55.943Z,15.30
2023-04-30T02:15:22.453Z,14.00
2023-04-30T02:17:49.329Z,15.30
2023-04-30T02:20:16.048Z,18.33
2023-04-30T02:22:42.755Z,16.88
2023-04-30T02:25:11.237Z,18.13
2023-04-30T02:27:38.605Z,18.23
2023-04-30T02:30:06.360Z,16.10
2023-04-30T02:32:32.941Z,16.45
2023-04-30T02:34:59.633Z,15.57
2023-04-30T02:37:26.234Z,17.38
2023-04-30T02:39:53.630Z,16.58
2023-04-30T02:42:20.436Z,14.77
2023-04-30T02:44:46.888Z,16.67
2023-04-30T02:47:13.345Z,17.23
2023-04-30T02:49:40.074Z,15.05
2023-04-30T02:52:09.419Z,15.75
2023-04-30T02:54:36.418Z,13.80
2023-04-30T02:57:03.627Z,17.73
2023-04-30T02:59:30.569Z,16.63
2023-04-30T03:01:57.159Z,19.38
2023-04-30T03:04:23.605Z,19.58
2023-04-30T03:06:50.086Z,17.85
2023-04-30T03:09:16.816Z,17.60
2023-04-30T03:11:43.199Z,17.83
2023-04-30T03:14:09.640Z,16.77
2023-04-30T03:16:36.638Z,16.17
2023-04-30T03:19:03.457Z,17.90
2023-04-30T03:21:30.887Z,14.15
2023-04-30T03:23:57.910Z,16.33
2023-04-30T03:26:24.471Z,15.98
2023-04-30T03:28:50.894Z,17.55
2023-04-30T03:31:17.831Z,14.65
2023-04-30T03:33:44.898Z,17.85
2023-04-30T03:36:11.686Z,15.32
2023-04-30T03:38:38.142Z,16.42
2023-04-30T03:41:04.797Z,15.68
2023-04-30T03:43:31.363Z,17.42
2023-04-30T03:45:58.077Z,16.35
2023-04-30T03:48:25.314Z,15.48
2023-04-30T03:50:51.788Z,17.05
2023-04-30T03:53:18.267Z,15.55
2023-04-30T03:55:45.086Z,16.95
2023-04-30T03:58:11.673Z,18.30
2023-04-30T04:00:41.423Z,16.50
2023-04-30T04:03:08.822Z,21.55
2023-04-30T04:05:35.291Z,17.23
2023-04-30T04:08:01.769Z,18.67
2023-04-30T04:10:28.553Z,21.88
2023-04-30T04:12:55.557Z,18.90
2023-04-30T04:15:22.114Z,17.48
2023-04-30T04:17:49.027Z,16.25
2023-04-30T04:20:15.519Z,19.67
2023-04-30T04:22:43.491Z,15.82
2023-04-30T04:25:10.411Z,17.83
2023-04-30T04:27:37.409Z,19.38
2023-04-30T04:30:04.254Z,20.10
2023-04-30T04:32:32.556Z,17.38
2023-04-30T04:34:59.438Z,21.77
2023-04-30T04:37:26.142Z,20.48
2023-04-30T04:39:52.803Z,17.75
2023-04-30T04:42:20.419Z,78.43
2023-04-30T04:44:47.367Z,30.02
2023-04-30T04:47:13.843Z,18.60
2023-04-30T04:49:40.257Z,18.15
2023-04-30T04:52:07.026Z,18.58
2023-04-30T04:54:33.910Z,16.52
2023-04-30T04:57:01.135Z,17.17
2023-04-30T04:59:27.516Z,16.88
2023-04-30T05:01:55.108Z,18.40
2023-04-30T05:04:21.748Z,17.00
2023-04-30T05:06:49.252Z,20.48
2023-04-30T05:09:16.269Z,16.52
2023-04-30T05:11:43.716Z,18.50
2023-04-30T05:14:10.166Z,19.20
2023-04-30T05:16:36.677Z,17.08
2023-04-30T05:19:03.452Z,17.05
2023-04-30T05:21:29.934Z,16.35
2023-04-30T05:23:56.371Z,16.98
2023-04-30T05:26:24.295Z,18.55
2023-04-30T05:28:52.224Z,15.40
2023-04-30T05:31:20.966Z,19.65
2023-04-30T05:33:47.768Z,18.23
2023-04-30T05:36:14.676Z,15.55
2023-04-30T05:38:41.341Z,18.42
2023-04-30T05:41:07.986Z,18.25
2023-04-30T05:43:34.619Z,18.23
2023-04-30T05:46:01.101Z,17.05
2023-04-30T05:48:27.640Z,17.52
2023-04-30T05:50:54.144Z,22.38
2023-04-30T05:53:20.644Z,20.23
2023-04-30T05:55:47.098Z,18.27
2023-04-30T05:58:13.495Z,20.55
2023-04-30T06:00:39.869Z,18.88
2023-04-30T06:03:06.418Z,19.55
2023-04-30T06:05:32.943Z,22.92
2023-04-30T06:07:59.415Z,20.27
2023-04-30T06:10:26.681Z,18.65
2023-04-30T06:12:53.141Z,22.95
2023-04-30T06:15:19.713Z,19.65
2023-04-30T06:17:46.458Z,24.67
2023-04-30T06:20:14.450Z,19.80
2023-04-30T06:22:41.254Z,19.92
2023-04-30T06:25:08.198Z,19.20
2023-04-30T06:27:34.895Z,22.23
2023-04-30T06:30:01.375Z,20.70
2023-04-30T06:32:27.908Z,20.10
2023-04-30T06:34:55.181Z,18.85
2023-04-30T06:37:21.604Z,19.42
2023-04-30T06:39:48.014Z,18.08
2023-04-30T06:42:14.396Z,17.83
2023-04-30T06:44:41.340Z,19.02
2023-04-30T06:47:08.316Z,18.67
2023-04-30T06:49:34.732Z,17.08
2023-04-30T06:52:01.455Z,17.58
2023-04-30T06:54:27.841Z,15.57
2023-04-30T06:56:54.366Z,15.80
2023-04-30T06:59:20.808Z,15.38
2023-04-30T07:01:47.665Z,14.13
2023-04-30T07:04:14.084Z,14.80
2023-04-30T07:06:40.531Z,13.77
2023-04-30T07:09:07.325Z,18.80
2023-04-30T07:11:33.742Z,16.73
2023-04-30T07:14:00.665Z,15.35
2023-04-30T07:16:27.956Z,17.10
2023-04-30T07:18:54.798Z,16.85
2023-04-30T07:21:21.832Z,17.05
2023-04-30T07:23:48.674Z,15.60
2023-04-30T07:26:15.837Z,16.13
2023-04-30T07:28:42.340Z,14.40
2023-04-30T07:31:08.751Z,16.85
2023-04-30T07:33:35.474Z,18.40
2023-04-30T07:36:01.914Z,15.45
2023-04-30T07:38:29.314Z,14.55
2023-04-30T07:40:55.815Z,14.00
2023-04-30T07:43:22.242Z,16.63
2023-04-30T07:45:49.956Z,12.85
2023-04-30T07:48:17.140Z,16.15
2023-04-30T07:50:43.543Z,15.23
2023-04-30T07:53:10.189Z,15.02
2023-04-30T07:55:36.619Z,14.65
2023-04-30T07:58:03.843Z,11.60
2023-04-30T08:00:31.126Z,13.60
2023-04-30T08:02:59.097Z,15.73
2023-04-30T08:05:26.787Z,12.15
2023-04-30T08:07:53.274Z,16.80
2023-04-30T08:10:19.832Z,12.10
2023-04-30T08:12:46.763Z,15.35
2023-04-30T08:15:13.297Z,14.57
2023-04-30T08:17:39.751Z,13.55
2023-04-30T08:20:07.035Z,13.38
2023-04-30T08:22:34.032Z,16.30
2023-04-30T08:25:01.827Z,16.20
2023-04-30T08:27:28.640Z,15.23
2023-04-30T08:29:55.188Z,16.23
2023-04-30T08:32:21.874Z,13.73
2023-04-30T08:34:48.328Z,13.52
2023-04-30T08:37:15.728Z,12.05
2023-04-30T08:39:42.108Z,11.57
2023-04-30T08:42:11.623Z,14.25
2023-04-30T08:44:39.678Z,11.50
2023-04-30T08:47:07.260Z,14.30
2023-04-30T08:49:33.949Z,12.55
2023-04-30T08:52:01.093Z,12.00
2023-04-30T08:54:31.481Z,13.63
2023-04-30T08:56:58.121Z,12.25
2023-04-30T08:59:24.512Z,12.40
2023-04-30T09:01:53.618Z,10.20
2023-04-30T09:04:20.780Z,16.88
2023-04-30T09:06:47.374Z,11.05
2023-04-30T09:09:16.155Z,12.82
2023-04-30T09:11:42.861Z,13.40
2023-04-30T09:14:09.333Z,9.80
2023-04-30T09:16:49.921Z,12.43
2023-04-30T09:19:23.425Z,12.40
2023-04-30T09:21:49.882Z,9.32
2023-04-30T09:24:18.702Z,12.15
2023-04-30T09:26:47.286Z,9.05
2023-04-30T09:29:14.387Z,9.02
2023-04-30T09:31:47.148Z,10.77
2023-04-30T09:34:15.000Z,9.52
2023-04-30T09:36:54.864Z,9.15
2023-04-30T09:39:21.746Z,8.32
2023-04-30T09:41:48.188Z,8.18
2023-04-30T09:44:31.974Z,9.50
2023-04-30T09:49:27.121Z,8.07
2023-04-30T09:52:00.953Z,7.35
2023-04-30T09:54:30.444Z,9.00
2023-04-30T09:57:01.631Z,10.38
2023-04-30T09:59:30.648Z,8.05
2023-04-30T10:02:01.625Z,7.20
2023-04-30T10:04:31.974Z,8.60
2023-04-30T10:07:01.157Z,7.88
2023-04-30T10:09:35.305Z,9.93
2023-04-30T10:12:05.567Z,7.43
2023-04-30T10:14:34.232Z,6.53
2023-04-30T10:17:11.530Z,4.60
2023-04-30T10:19:41.620Z,5.13
2023-04-30T10:22:09.343Z,7.43
2023-04-30T10:24:36.568Z,5.88
2023-04-30T10:27:03.497Z,6.78
2023-04-30T10:29:29.897Z,5.75
2023-04-30T10:31:57.367Z,4.78
2023-04-30T10:34:35.716Z,6.05
2023-04-30T10:37:11.665Z,4.00
2023-04-30T10:39:38.835Z,5.05
2023-04-30T10:42:07.055Z,4.65
2023-04-30T10:44:35.153Z,3.65
2023-04-30T10:47:03.206Z,5.18
2023-04-30T10:49:30.008Z,3.75
2023-04-30T10:52:00.634Z,3.92
2023-04-30T10:54:29.135Z,3.47
2023-04-30T10:57:10.506Z,3.53
2023-04-30T10:59:37.154Z,2.90
2023-04-30T11:02:04.096Z,3.13
2023-04-30T11:04:30.620Z,3.17
2023-04-30T11:07:09.670Z,4.78
2023-04-30T11:09:44.965Z,3.50
2023-04-30T11:12:19.318Z,3.83
2023-04-30T11:14:46.718Z,5.03
2023-04-30T11:17:22.604Z,3.67
2023-04-30T11:19:50.638Z,3.83
2023-04-30T11:22:19.147Z,4.03
2023-04-30T11:25:03.713Z,3.58
2023-04-30T11:27:32.490Z,2.95
2023-04-30T11:29:59.988Z,2.22
2023-04-30T11:32:32.087Z,3.55
2023-04-30T11:34:58.680Z,5.30
2023-04-30T11:37:32.427Z,2.15
2023-04-30T11:40:05.778Z,2.92
2023-04-30T11:42:34.541Z,2.90
2023-04-30T11:45:23.219Z,4.03
2023-04-30T11:47:54.987Z,3.45
2023-04-30T11:50:29.615Z,3.33
2023-04-30T11:52:57.820Z,3.08
2023-04-30T11:55:25.733Z,2.60
2023-04-30T11:57:58.580Z,2.10
2023-04-30T12:00:30.466Z,2.20
2023-04-30T12:02:59.280Z,2.00
2023-04-30T12:05:27.976Z,1.65
2023-04-30T12:08:00.582Z,2.25
2023-04-30T12:10:27.214Z,2.38
2023-04-30T12:12:54.695Z,2.30
2023-04-30T12:15:28.977Z,1.90
2023-04-30T12:17:56.981Z,2.95
2023-04-30T12:20:28.188Z,2.20
2023-04-30T12:22:54.915Z,2.17
2023-04-30T12:25:22.741Z,1.70
2023-04-30T12:27:53.186Z,2.63
2023-04-30T12:30:21.383Z,2.65
2023-04-30T12:32:51.377Z,2.05
2023-04-30T12:35:21.084Z,1.77
2023-04-30T12:37:50.118Z,1.50
2023-04-30T12:40:19.223Z,2.25
2023-04-30T12:42:47.041Z,2.30
2023-04-30T12:45:47.858Z,1.60
2023-04-30T12:48:15.945Z,1.52
2023-04-30T12:50:47.165Z,2.25
2023-04-30T12:53:13.664Z,3.33
2023-04-30T12:55:40.089Z,1.75
2023-04-30T12:58:08.764Z,1.52
2023-04-30T13:00:45.451Z,2.38
2023-04-30T13:03:16.958Z,2.00
2023-04-30T13:05:48.187Z,2.13
2023-04-30T13:08:15.164Z,1.80
2023-04-30T13:10:41.721Z,2.78
2023-04-30T13:13:08.576Z,2.35
2023-04-30T13:15:35.121Z,2.95
2023-04-30T13:18:01.699Z,3.25
2023-04-30T13:20:28.174Z,4.32
2023-04-30T13:22:54.566Z,1.50
2023-04-30T13:25:22.039Z,1.75
2023-04-30T13:27:48.461Z,6.32
2023-04-30T13:30:14.953Z,2.78
2023-04-30T13:32:43.002Z,2.38
2023-04-30T13:35:10.169Z,1.75
2023-04-30T13:37:36.833Z,2.13
2023-04-30T13:40:03.990Z,2.17
2023-04-30T13:42:30.660Z,4.45
2023-04-30T13:44:57.457Z,2.95
2023-04-30T13:47:24.287Z,1.63
2023-04-30T13:49:50.900Z,1.88
2023-04-30T13:52:17.295Z,2.85
2023-04-30T13:54:43.714Z,1.67
2023-04-30T13:57:10.128Z,2.67
2023-04-30T13:59:36.680Z,2.38
2023-04-30T14:02:03.159Z,2.47
2023-04-30T14:04:31.130Z,2.25
2023-04-30T14:06:57.588Z,2.17
2023-04-30T14:09:24.200Z,2.22
2023-04-30T14:11:51.232Z,2.58
2023-04-30T14:14:17.696Z,2.83
2023-04-30T14:16:44.678Z,3.10
2023-04-30T14:19:11.170Z,2.08
2023-04-30T14:21:37.759Z,4.18
2023-04-30T14:24:04.777Z,2.83
2023-04-30T14:26:31.274Z,2.20
2023-04-30T14:28:57.958Z,2.35
2023-04-30T14:31:24.371Z,2.13
2023-04-30T14:33:50.789Z,4.18
2023-04-30T14:36:17.228Z,1.95
2023-04-30T14:38:43.829Z,2.40
2023-04-30T14:41:10.214Z,5.50
2023-04-30T14:43:36.627Z,2.25
2023-04-30T14:46:03.757Z,1.20
2023-04-30T14:48:30.285Z,2.83
2023-04-30T14:50:56.906Z,3.20
2023-04-30T14:53:23.268Z,2.53
2023-04-30T14:55:50.337Z,3.38
2023-04-30T14:58:17.309Z,2.22
2023-04-30T15:00:43.788Z,3.30
2023-04-30T15:03:10.249Z,3.45
2023-04-30T15:05:36.741Z,3.50
2023-04-30T15:08:03.220Z,2.60
2023-04-30T15:10:29.959Z,2.35
2023-04-30T15:12:56.333Z,4.30
2023-04-30T15:15:27.670Z,2.90
2023-04-30T15:17:58.096Z,1.80
2023-04-30T15:20:24.572Z,5.00
2023-04-30T15:22:51.179Z,1.83
2023-04-30T15:25:18.128Z,2.45
2023-04-30T15:27:44.594Z,2.75
2023-04-30T15:30:11.601Z,3.72
2023-04-30T15:32:38.805Z,2.90
2023-04-30T15:35:06.696Z,2.80
2023-04-30T15:37:34.483Z,2.30
2023-04-30T15:40:01.123Z,3.03
2023-04-30T15:42:27.563Z,3.80
2023-04-30T15:44:53.982Z,4.07
2023-04-30T15:47:23.225Z,2.38
2023-04-30T15:49:50.365Z,2.63
2023-04-30T15:52:17.352Z,3.70
2023-04-30T15:54:43.807Z,4.13
2023-04-30T15:57:10.369Z,3.38
2023-04-30T15:59:36.805Z,2.55
2023-04-30T16:02:03.303Z,3.92
2023-04-30T16:04:29.771Z,3.33
2023-04-30T16:06:57.056Z,3.20
2023-04-30T16:09:23.851Z,3.63
2023-04-30T16:11:51.103Z,2.33
2023-04-30T16:14:17.542Z,2.10
2023-04-30T16:16:43.955Z,2.47
2023-04-30T16:19:12.230Z,4.35
2023-04-30T16:21:39.326Z,2.92
2023-04-30T16:24:07.005Z,3.53
2023-04-30T16:26:34.791Z,3.85
2023-04-30T16:29:01.629Z,2.92
2023-04-30T16:31:28.560Z,3.03
2023-04-30T16:33:55.337Z,4.32
2023-04-30T16:36:22.047Z,3.10
2023-04-30T16:38:48.510Z,2.67
2023-04-30T16:41:16.812Z,1.90
2023-04-30T16:43:43.866Z,3.90
2023-04-30T16:46:10.649Z,3.28
2023-04-30T16:48:38.077Z,2.92
2023-04-30T16:51:05.449Z,2.17
2023-04-30T16:53:31.833Z,2.78
2023-04-30T16:55:58.288Z,3.17
2023-04-30T16:58:24.984Z,2.72
2023-04-30T17:00:55.852Z,4.10
2023-04-30T17:03:23.865Z,2.67
2023-04-30T17:05:52.868Z,2.25
2023-04-30T17:08:20.058Z,2.42
2023-04-30T17:10:47.945Z,2.88
2023-04-30T17:13:14.651Z,2.70
2023-04-30T17:15:41.265Z,4.15
2023-04-30T17:18:09.466Z,3.42
2023-04-30T17:20:36.368Z,2.63
2023-04-30T17:23:03.428Z,3.38
2023-04-30T17:25:31.696Z,4.13
2023-04-30T17:28:01.169Z,3.17
2023-04-30T17:30:30.857Z,5.63
2023-04-30T17:32:58.505Z,5.22
2023-04-30T17:35:25.422Z,4.68
2023-04-30T17:37:52.939Z,5.50
2023-04-30T17:40:19.390Z,3.72
2023-04-30T17:42:46.192Z,5.10
2023-04-30T17:45:12.617Z,5.07
2023-04-30T17:47:39.431Z,3.63
2023-04-30T17:50:08.319Z,3.70
2023-04-30T17:52:38.303Z,2.30
2023-04-30T17:55:07.650Z,4.10
2023-04-30T17:57:34.570Z,5.30
2023-04-30T18:00:01.294Z,7.10
2023-04-30T18:02:29.317Z,6.80
2023-04-30T18:04:56.406Z,4.68
2023-04-30T18:07:22.870Z,5.07
2023-04-30T18:09:49.289Z,5.57
2023-04-30T18:12:16.099Z,6.60
2023-04-30T18:14:42.891Z,8.23
2023-04-30T18:17:09.314Z,9.70
2023-04-30T18:19:43.070Z,8.05
2023-04-30T18:22:09.588Z,6.07
2023-04-30T18:24:36.114Z,5.03
2023-04-30T18:27:04.875Z,3.83
2023-04-30T18:29:31.498Z,4.57
2023-04-30T18:31:58.129Z,7.18
2023-04-30T18:34:25.023Z,8.38
2023-04-30T18:36:51.716Z,7.53
2023-04-30T18:39:18.453Z,7.90
2023-04-30T18:41:45.008Z,5.72
2023-04-30T18:44:11.775Z,3.83
2023-04-30T18:46:38.313Z,4.28
2023-04-30T18:49:05.370Z,5.85
2023-04-30T18:51:32.285Z,5.07
2023-04-30T18:53:58.680Z,4.63
2023-04-30T18:56:25.310Z,7.50
2023-04-30T18:58:52.126Z,4.25
2023-04-30T19:01:21.262Z,7.88
2023-04-30T19:03:48.210Z,3.95
2023-04-30T19:06:15.217Z,4.53
2023-04-30T19:08:42.721Z,3.72
2023-04-30T19:11:10.399Z,4.53
2023-04-30T19:13:36.809Z,3.17
2023-04-30T19:16:04.158Z,2.53
2023-04-30T19:18:30.725Z,4.00
2023-04-30T19:21:02.076Z,2.47
2023-04-30T19:23:30.725Z,3.10
2023-04-30T19:25:58.474Z,4.82
2023-04-30T19:28:25.234Z,5.35
2023-04-30T19:30:55.227Z,6.38
2023-04-30T19:33:22.670Z,4.28
2023-04-30T19:35:54.493Z,4.38
2023-04-30T19:38:21.711Z,3.63
2023-04-30T19:40:53.077Z,3.55
2023-04-30T19:43:23.077Z,4.15
2023-04-30T19:45:57.391Z,3.13
2023-04-30T19:48:25.519Z,3.58
2023-04-30T19:50:55.620Z,3.47
2023-04-30T19:53:22.458Z,3.78
2023-04-30T19:55:48.964Z,3.92
2023-04-30T19:58:15.462Z,3.85
2023-04-30T20:00:44.878Z,7.22
2023-04-30T20:03:13.817Z,3.47
2023-04-30T20:05:40.509Z,4.53
2023-04-30T20:08:08.909Z,5.60
2023-04-30T20:10:37.918Z,4.38
2023-04-30T20:13:06.253Z,6.40
2023-04-30T20:15:33.217Z,5.70
2023-04-30T20:18:01.397Z,5.70
2023-04-30T20:20:29.381Z,4.90
2023-04-30T20:22:56.759Z,5.65
2023-04-30T20:25:29.346Z,5.38
2023-04-30T20:27:56.326Z,4.13
2023-04-30T20:30:22.852Z,3.00
2023-04-30T20:32:49.381Z,3.85
2023-04-30T20:35:16.074Z,4.65
2023-04-30T20:37:42.633Z,5.72
2023-04-30T20:40:09.496Z,4.63
2023-04-30T20:42:36.058Z,4.90
2023-04-30T20:45:05.225Z,5.22
2023-04-30T20:47:32.266Z,4.20
2023-04-30T20:49:58.832Z,5.90
2023-04-30T20:52:25.976Z,5.05
2023-04-30T20:54:52.410Z,5.38
2023-04-30T20:57:19.854Z,4.53
2023-04-30T20:59:46.253Z,4.18
2023-04-30T21:02:12.696Z,6.82
2023-04-30T21:04:39.940Z,3.58
2023-04-30T21:07:10.965Z,5.30
2023-04-30T21:09:38.553Z,4.75
2023-04-30T21:12:05.377Z,3.45
2023-04-30T21:14:32.187Z,3.90
2023-04-30T21:16:59.642Z,3.83
2023-04-30T21:19:33.429Z,3.78
2023-04-30T21:22:00.380Z,4.75
2023-04-30T21:24:30.328Z,4.15
2023-04-30T21:26:57.025Z,5.20
2023-04-30T21:29:24.748Z,5.47
2023-04-30T21:31:51.126Z,4.43
2023-04-30T21:34:17.781Z,4.25
2023-04-30T21:36:44.228Z,5.03
2023-04-30T21:39:11.302Z,4.18
2023-04-30T21:41:37.752Z,7.07
2023-04-30T21:44:04.614Z,4.50
2023-04-30T21:46:31.224Z,5.57
2023-04-30T21:48:57.682Z,4.47
2023-04-30T21:51:24.146Z,3.88
2023-04-30T21:53:50.726Z,4.30
2023-04-30T21:56:17.781Z,4.38
2023-04-30T21:58:45.018Z,5.18
2023-04-30T22:01:11.574Z,4.55
2023-04-30T22:03:38.115Z,4.13
2023-04-30T22:06:04.921Z,4.45
2023-04-30T22:08:31.679Z,6.20
2023-04-30T22:10:59.692Z,6.80
2023-04-30T22:13:27.637Z,4.10
2023-04-30T22:15:54.874Z,4.80
2023-04-30T22:18:22.602Z,3.60
2023-04-30T22:20:49.947Z,4.63
2023-04-30T22:23:17.236Z,6.72
2023-04-30T22:25:43.957Z,5.70
2023-04-30T22:28:10.534Z,5.13
2023-04-30T22:30:37.704Z,5.55
2023-04-30T22:33:04.258Z,6.95
2023-04-30T22:35:31.032Z,7.20
2023-04-30T22:37:57.415Z,5.18
2023-04-30T22:40:24.162Z,4.45
2023-04-30T22:42:50.765Z,3.92
2023-04-30T22:45:17.231Z,6.85
2023-04-30T22:47:45.662Z,6.80
2023-04-30T22:50:12.249Z,7.43
2023-04-30T22:52:38.924Z,4.95
2023-04-30T22:55:06.617Z,6.43
2023-04-30T22:57:33.149Z,6.57
2023-04-30T22:59:59.621Z,7.88
2023-04-30T23:02:26.515Z,9.07
2023-04-30T23:04:53.016Z,8.13
2023-04-30T23:07:19.440Z,9.45
2023-04-30T23:09:46.113Z,7.53
2023-04-30T23:12:12.540Z,7.57
2023-04-30T23:14:39.166Z,6.80
2023-04-30T23:17:05.772Z,7.25
2023-04-30T23:19:32.780Z,7.80
2023-04-30T23:21:59.186Z,5.18
2023-04-30T23:24:26.198Z,6.60
2023-04-30T23:26:52.679Z,6.60
2023-04-30T23:29:19.563Z,8.48
2023-04-30T23:31:46.271Z,5.88
2023-04-30T23:34:12.820Z,6.78
2023-04-30T23:36:39.958Z,5.82
2023-04-30T23:39:06.383Z,5.55
2023-04-30T23:41:32.778Z,6.45
2023-04-30T23:43:59.220Z,5.85
2023-04-30T23:46:25.682Z,6.60
2023-04-30T23:48:52.093Z,6.32
2023-04-30T23:51:18.940Z,6.22
2023-04-30T23:53:45.709Z,6.10
2023-04-30T23:56:12.307Z,8.45
2023-04-30T23:58:38.856Z,4.65
